sensor_id;sensor_type;location;lat;lon;timestamp;P1;durP1;ratioP1;P2;durP2;ratioP2
12758;SDS011;20944;47.048;15.390;2023-10-31T00:00:49;2.77;;;1.40;;
12758;SDS011;20944;47.048;15.390;2023-10-31T00:03:18;3.23;;;1.30;;
12758;SDS011;20944;47.048;15.390;2023-10-31T00:05:47;2.30;;;1.10;;
12758;SDS011;20944;47.048;15.390;2023-10-31T00:08:17;4.50;;;1.30;;
12758;SDS011;20944;47.048;15.390;2023-10-31T00:10:45;1.20;;;1.10;;
12758;SDS011;20944;47.048;15.390;2023-10-31T00:13:14;0.57;;;0.57;;
12758;SDS011;20944;47.048;15.390;2023-10-31T00:15:42;1.10;;;0.93;;
12758;SDS011;20944;47.048;15.390;2023-10-31T00:18:11;2.63;;;1.40;;
12758;SDS011;20944;47.048;15.390;2023-10-31T00:20:40;3.93;;;1.00;;
12758;SDS011;20944;47.048;15.390;2023-10-31T00:23:08;1.93;;;1.30;;
12758;SDS011;20944;47.048;15.390;2023-10-31T00:25:38;3.57;;;1.10;;
12758;SDS011;20944;47.048;15.390;2023-10-31T00:28:07;2.05;;;1.15;;
12758;SDS011;20944;47.048;15.390;2023-10-31T00:30:36;1.03;;;0.83;;
12758;SDS011;20944;47.048;15.390;2023-10-31T00:33:04;1.10;;;1.00;;
12758;SDS011;20944;47.048;15.390;2023-10-31T00:35:33;2.00;;;1.03;;
12758;SDS011;20944;47.048;15.390;2023-10-31T00:38:02;3.78;;;1.30;;
12758;SDS011;20944;47.048;15.390;2023-10-31T00:40:30;2.13;;;0.90;;
12758;SDS011;20944;47.048;15.390;2023-10-31T00:43:00;1.47;;;0.90;;
12758;SDS011;20944;47.048;15.390;2023-10-31T00:45:28;2.88;;;0.80;;
12758;SDS011;20944;47.048;15.390;2023-10-31T00:47:57;2.27;;;0.80;;
12758;SDS011;20944;47.048;15.390;2023-10-31T00:50:25;3.17;;;1.50;;
12758;SDS011;20944;47.048;15.390;2023-10-31T00:52:53;0.70;;;0.70;;
12758;SDS011;20944;47.048;15.390;2023-10-31T00:55:22;3.78;;;1.25;;
12758;SDS011;20944;47.048;15.390;2023-10-31T00:57:50;1.27;;;1.00;;
12758;SDS011;20944;47.048;15.390;2023-10-31T01:00:20;1.93;;;0.90;;
12758;SDS011;20944;47.048;15.390;2023-10-31T01:02:48;3.00;;;1.13;;
12758;SDS011;20944;47.048;15.390;2023-10-31T01:05:17;1.10;;;0.93;;
12758;SDS011;20944;47.048;15.390;2023-10-31T01:07:45;1.93;;;1.20;;
12758;SDS011;20944;47.048;15.390;2023-10-31T01:10:14;0.80;;;0.77;;
12758;SDS011;20944;47.048;15.390;2023-10-31T01:12:42;2.25;;;0.95;;
12758;SDS011;20944;47.048;15.390;2023-10-31T01:15:10;3.67;;;1.20;;
12758;SDS011;20944;47.048;15.390;2023-10-31T01:17:40;3.53;;;0.93;;
12758;SDS011;20944;47.048;15.390;2023-10-31T01:20:08;2.15;;;1.20;;
12758;SDS011;20944;47.048;15.390;2023-10-31T01:22:38;1.60;;;0.95;;
12758;SDS011;20944;47.048;15.390;2023-10-31T01:25:06;3.20;;;1.30;;
12758;SDS011;20944;47.048;15.390;2023-10-31T01:27:34;2.40;;;1.00;;
12758;SDS011;20944;47.048;15.390;2023-10-31T01:30:03;2.35;;;0.85;;
12758;SDS011;20944;47.048;15.390;2023-10-31T01:32:32;2.58;;;0.77;;
12758;SDS011;20944;47.048;15.390;2023-10-31T01:35:02;1.13;;;0.85;;
12758;SDS011;20944;47.048;15.390;2023-10-31T01:37:30;2.10;;;0.82;;
12758;SDS011;20944;47.048;15.390;2023-10-31T01:39:59;2.85;;;0.70;;
12758;SDS011;20944;47.048;15.390;2023-10-31T01:42:27;2.42;;;1.00;;
12758;SDS011;20944;47.048;15.390;2023-10-31T01:44:55;2.78;;;0.63;;
12758;SDS011;20944;47.048;15.390;2023-10-31T01:47:24;3.70;;;0.85;;
12758;SDS011;20944;47.048;15.390;2023-10-31T01:49:52;4.43;;;0.90;;
12758;SDS011;20944;47.048;15.390;2023-10-31T01:52:22;3.00;;;0.80;;
12758;SDS011;20944;47.048;15.390;2023-10-31T01:54:50;2.42;;;0.65;;
12758;SDS011;20944;47.048;15.390;2023-10-31T01:57:19;2.78;;;0.77;;
12758;SDS011;20944;47.048;15.390;2023-10-31T01:59:50;1.95;;;0.82;;
12758;SDS011;20944;47.048;15.390;2023-10-31T02:02:18;2.10;;;0.77;;
12758;SDS011;20944;47.048;15.390;2023-10-31T02:04:50;1.40;;;0.55;;
12758;SDS011;20944;47.048;15.390;2023-10-31T02:07:19;0.65;;;0.60;;
12758;SDS011;20944;47.048;15.390;2023-10-31T02:09:49;3.70;;;0.80;;
12758;SDS011;20944;47.048;15.390;2023-10-31T02:12:30;2.55;;;1.02;;
12758;SDS011;20944;47.048;15.390;2023-10-31T02:15:00;2.05;;;0.70;;
12758;SDS011;20944;47.048;15.390;2023-10-31T02:17:29;4.20;;;0.82;;
12758;SDS011;20944;47.048;15.390;2023-10-31T02:19:57;2.10;;;0.70;;
12758;SDS011;20944;47.048;15.390;2023-10-31T02:22:27;1.25;;;0.80;;
12758;SDS011;20944;47.048;15.390;2023-10-31T02:24:55;5.35;;;0.80;;
12758;SDS011;20944;47.048;15.390;2023-10-31T02:27:24;3.75;;;1.17;;
12758;SDS011;20944;47.048;15.390;2023-10-31T02:29:52;2.83;;;0.77;;
12758;SDS011;20944;47.048;15.390;2023-10-31T02:32:20;2.15;;;0.90;;
12758;SDS011;20944;47.048;15.390;2023-10-31T02:34:49;2.80;;;0.73;;
12758;SDS011;20944;47.048;15.390;2023-10-31T02:37:17;3.15;;;0.90;;
12758;SDS011;20944;47.048;15.390;2023-10-31T02:39:47;2.55;;;0.95;;
12758;SDS011;20944;47.048;15.390;2023-10-31T02:42:16;2.58;;;0.82;;
12758;SDS011;20944;47.048;15.390;2023-10-31T02:44:44;1.00;;;0.60;;
12758;SDS011;20944;47.048;15.390;2023-10-31T02:47:13;2.88;;;0.90;;
12758;SDS011;20944;47.048;15.390;2023-10-31T02:49:41;4.28;;;1.17;;
12758;SDS011;20944;47.048;15.390;2023-10-31T02:52:09;3.45;;;0.90;;
12758;SDS011;20944;47.048;15.390;2023-10-31T02:54:38;2.97;;;0.90;;
12758;SDS011;20944;47.048;15.390;2023-10-31T02:57:09;1.67;;;0.80;;
12758;SDS011;20944;47.048;15.390;2023-10-31T02:59:40;0.93;;;0.70;;
12758;SDS011;20944;47.048;15.390;2023-10-31T03:02:08;1.88;;;0.70;;
12758;SDS011;20944;47.048;15.390;2023-10-31T03:04:37;0.82;;;0.80;;
12758;SDS011;20944;47.048;15.390;2023-10-31T03:07:06;2.25;;;0.68;;
12758;SDS011;20944;47.048;15.390;2023-10-31T03:09:34;1.02;;;0.70;;
12758;SDS011;20944;47.048;15.390;2023-10-31T03:12:02;1.60;;;0.80;;
12758;SDS011;20944;47.048;15.390;2023-10-31T03:14:32;3.08;;;1.05;;
12758;SDS011;20944;47.048;15.390;2023-10-31T03:17:00;3.38;;;0.90;;
12758;SDS011;20944;47.048;15.390;2023-10-31T03:19:29;2.58;;;1.20;;
12758;SDS011;20944;47.048;15.390;2023-10-31T03:21:57;3.10;;;0.93;;
12758;SDS011;20944;47.048;15.390;2023-10-31T03:24:25;1.80;;;0.85;;
12758;SDS011;20944;47.048;15.390;2023-10-31T03:26:54;0.60;;;0.60;;
12758;SDS011;20944;47.048;15.390;2023-10-31T03:29:22;1.90;;;0.47;;
12758;SDS011;20944;47.048;15.390;2023-10-31T03:31:52;1.40;;;0.70;;
12758;SDS011;20944;47.048;15.390;2023-10-31T03:34:20;2.35;;;0.70;;
12758;SDS011;20944;47.048;15.390;2023-10-31T03:36:48;1.27;;;0.70;;
12758;SDS011;20944;47.048;15.390;2023-10-31T03:39:16;1.50;;;0.60;;
12758;SDS011;20944;47.048;15.390;2023-10-31T03:41:45;3.53;;;0.93;;
12758;SDS011;20944;47.048;15.390;2023-10-31T03:44:13;1.02;;;0.90;;
12758;SDS011;20944;47.048;15.390;2023-10-31T03:46:42;1.17;;;0.60;;
12758;SDS011;20944;47.048;15.390;2023-10-31T03:49:11;0.85;;;0.57;;
12758;SDS011;20944;47.048;15.390;2023-10-31T03:51:40;3.55;;;0.88;;
12758;SDS011;20944;47.048;15.390;2023-10-31T03:54:08;1.85;;;0.90;;
12758;SDS011;20944;47.048;15.390;2023-10-31T03:56:40;2.05;;;0.70;;
12758;SDS011;20944;47.048;15.390;2023-10-31T03:59:09;4.22;;;0.88;;
12758;SDS011;20944;47.048;15.390;2023-10-31T04:01:38;1.33;;;0.70;;
12758;SDS011;20944;47.048;15.390;2023-10-31T04:04:07;0.90;;;0.65;;
12758;SDS011;20944;47.048;15.390;2023-10-31T04:06:37;1.50;;;0.65;;
12758;SDS011;20944;47.048;15.390;2023-10-31T04:09:07;7.45;;;2.83;;
12758;SDS011;20944;47.048;15.390;2023-10-31T04:11:36;1.60;;;1.00;;
12758;SDS011;20944;47.048;15.390;2023-10-31T04:14:04;4.47;;;2.17;;
12758;SDS011;20944;47.048;15.390;2023-10-31T04:16:37;1.40;;;1.30;;
12758;SDS011;20944;47.048;15.390;2023-10-31T04:19:06;2.28;;;1.30;;
12758;SDS011;20944;47.048;15.390;2023-10-31T04:21:36;4.30;;;1.42;;
12758;SDS011;20944;47.048;15.390;2023-10-31T04:24:05;2.22;;;1.00;;
12758;SDS011;20944;47.048;15.390;2023-10-31T04:26:34;1.67;;;1.00;;
12758;SDS011;20944;47.048;15.390;2023-10-31T04:29:02;2.92;;;0.98;;
12758;SDS011;20944;47.048;15.390;2023-10-31T04:31:30;4.70;;;1.13;;
12758;SDS011;20944;47.048;15.390;2023-10-31T04:34:09;1.83;;;1.10;;
12758;SDS011;20944;47.048;15.390;2023-10-31T04:36:39;1.33;;;0.80;;
12758;SDS011;20944;47.048;15.390;2023-10-31T04:39:07;3.22;;;0.98;;
12758;SDS011;20944;47.048;15.390;2023-10-31T04:41:36;1.35;;;0.80;;
12758;SDS011;20944;47.048;15.390;2023-10-31T04:44:04;1.10;;;0.70;;
12758;SDS011;20944;47.048;15.390;2023-10-31T04:46:34;2.22;;;0.75;;
12758;SDS011;20944;47.048;15.390;2023-10-31T04:49:02;0.82;;;0.82;;
12758;SDS011;20944;47.048;15.390;2023-10-31T04:51:32;3.80;;;0.73;;
12758;SDS011;20944;47.048;15.390;2023-10-31T04:54:03;0.93;;;0.80;;
12758;SDS011;20944;47.048;15.390;2023-10-31T04:56:31;1.33;;;0.90;;
12758;SDS011;20944;47.048;15.390;2023-10-31T04:59:00;2.72;;;1.02;;
12758;SDS011;20944;47.048;15.390;2023-10-31T05:01:29;1.80;;;1.20;;
12758;SDS011;20944;47.048;15.390;2023-10-31T05:03:57;1.95;;;0.82;;
12758;SDS011;20944;47.048;15.390;2023-10-31T05:06:38;1.15;;;0.77;;
12758;SDS011;20944;47.048;15.390;2023-10-31T05:09:08;1.20;;;0.88;;
12758;SDS011;20944;47.048;15.390;2023-10-31T05:11:37;1.08;;;1.00;;
12758;SDS011;20944;47.048;15.390;2023-10-31T05:14:07;1.13;;;0.80;;
12758;SDS011;20944;47.048;15.390;2023-10-31T05:16:40;2.88;;;0.70;;
12758;SDS011;20944;47.048;15.390;2023-10-31T05:19:09;4.47;;;0.85;;
12758;SDS011;20944;47.048;15.390;2023-10-31T05:21:38;0.88;;;0.88;;
12758;SDS011;20944;47.048;15.390;2023-10-31T05:24:08;2.50;;;0.90;;
12758;SDS011;20944;47.048;15.390;2023-10-31T05:26:37;1.40;;;1.08;;
12758;SDS011;20944;47.048;15.390;2023-10-31T05:29:07;2.78;;;0.80;;
12758;SDS011;20944;47.048;15.390;2023-10-31T05:31:35;2.13;;;0.80;;
12758;SDS011;20944;47.048;15.390;2023-10-31T05:34:04;4.80;;;1.08;;
12758;SDS011;20944;47.048;15.390;2023-10-31T05:36:33;1.08;;;0.70;;
12758;SDS011;20944;47.048;15.390;2023-10-31T05:39:01;4.32;;;0.80;;
12758;SDS011;20944;47.048;15.390;2023-10-31T05:41:33;1.15;;;0.90;;
12758;SDS011;20944;47.048;15.390;2023-10-31T05:44:02;1.30;;;0.70;;
12758;SDS011;20944;47.048;15.390;2023-10-31T05:46:30;6.05;;;0.73;;
12758;SDS011;20944;47.048;15.390;2023-10-31T05:48:59;1.85;;;0.75;;
12758;SDS011;20944;47.048;15.390;2023-10-31T05:51:27;0.52;;;0.52;;
12758;SDS011;20944;47.048;15.390;2023-10-31T05:53:56;2.25;;;0.90;;
12758;SDS011;20944;47.048;15.390;2023-10-31T05:56:24;1.90;;;0.80;;
12758;SDS011;20944;47.048;15.390;2023-10-31T05:58:54;0.95;;;0.75;;
12758;SDS011;20944;47.048;15.390;2023-10-31T06:01:22;1.88;;;0.75;;
12758;SDS011;20944;47.048;15.390;2023-10-31T06:03:50;2.00;;;0.93;;
12758;SDS011;20944;47.048;15.390;2023-10-31T06:06:18;1.23;;;0.93;;
12758;SDS011;20944;47.048;15.390;2023-10-31T06:08:47;4.70;;;1.25;;
12758;SDS011;20944;47.048;15.390;2023-10-31T06:11:16;1.40;;;0.80;;
12758;SDS011;20944;47.048;15.390;2023-10-31T06:13:44;4.05;;;1.15;;
12758;SDS011;20944;47.048;15.390;2023-10-31T06:16:16;1.15;;;1.00;;
12758;SDS011;20944;47.048;15.390;2023-10-31T06:18:44;5.32;;;0.95;;
12758;SDS011;20944;47.048;15.390;2023-10-31T06:21:12;1.15;;;1.02;;
12758;SDS011;20944;47.048;15.390;2023-10-31T06:23:41;0.88;;;0.85;;
12758;SDS011;20944;47.048;15.390;2023-10-31T06:26:10;1.00;;;0.88;;
12758;SDS011;20944;47.048;15.390;2023-10-31T06:28:39;2.88;;;0.80;;
12758;SDS011;20944;47.048;15.390;2023-10-31T06:31:24;2.78;;;1.00;;
12758;SDS011;20944;47.048;15.390;2023-10-31T06:33:52;3.83;;;1.00;;
12758;SDS011;20944;47.048;15.390;2023-10-31T06:36:20;2.75;;;1.10;;
12758;SDS011;20944;47.048;15.390;2023-10-31T06:38:49;4.03;;;1.23;;
12758;SDS011;20944;47.048;15.390;2023-10-31T06:41:17;2.13;;;0.85;;
12758;SDS011;20944;47.048;15.390;2023-10-31T06:43:46;3.00;;;1.05;;
12758;SDS011;20944;47.048;15.390;2023-10-31T06:46:14;1.10;;;1.00;;
12758;SDS011;20944;47.048;15.390;2023-10-31T06:48:44;1.40;;;1.00;;
12758;SDS011;20944;47.048;15.390;2023-10-31T06:51:13;1.13;;;0.82;;
12758;SDS011;20944;47.048;15.390;2023-10-31T06:53:41;1.13;;;0.80;;
12758;SDS011;20944;47.048;15.390;2023-10-31T06:56:10;2.78;;;0.80;;
12758;SDS011;20944;47.048;15.390;2023-10-31T06:58:39;1.42;;;0.95;;
12758;SDS011;20944;47.048;15.390;2023-10-31T07:01:07;2.08;;;1.00;;
12758;SDS011;20944;47.048;15.390;2023-10-31T07:03:36;1.10;;;0.95;;
12758;SDS011;20944;47.048;15.390;2023-10-31T07:06:07;3.00;;;0.90;;
12758;SDS011;20944;47.048;15.390;2023-10-31T07:08:35;1.50;;;1.20;;
12758;SDS011;20944;47.048;15.390;2023-10-31T07:11:04;1.92;;;1.20;;
12758;SDS011;20944;47.048;15.390;2023-10-31T07:13:32;3.58;;;1.02;;
12758;SDS011;20944;47.048;15.390;2023-10-31T07:16:01;5.35;;;1.05;;
12758;SDS011;20944;47.048;15.390;2023-10-31T07:18:30;5.22;;;1.00;;
12758;SDS011;20944;47.048;15.390;2023-10-31T07:20:58;0.85;;;0.85;;
12758;SDS011;20944;47.048;15.390;2023-10-31T07:23:28;1.30;;;0.80;;
12758;SDS011;20944;47.048;15.390;2023-10-31T07:25:56;2.63;;;1.15;;
12758;SDS011;20944;47.048;15.390;2023-10-31T07:28:25;3.50;;;0.98;;
12758;SDS011;20944;47.048;15.390;2023-10-31T07:30:53;0.60;;;0.60;;
12758;SDS011;20944;47.048;15.390;2023-10-31T07:33:22;3.00;;;0.68;;
12758;SDS011;20944;47.048;15.390;2023-10-31T07:35:50;2.30;;;0.90;;
12758;SDS011;20944;47.048;15.390;2023-10-31T07:38:19;1.15;;;0.93;;
12758;SDS011;20944;47.048;15.390;2023-10-31T07:40:49;1.70;;;0.90;;
12758;SDS011;20944;47.048;15.390;2023-10-31T07:43:17;3.60;;;1.00;;
12758;SDS011;20944;47.048;15.390;2023-10-31T07:45:46;1.85;;;1.08;;
12758;SDS011;20944;47.048;15.390;2023-10-31T07:48:18;1.08;;;0.95;;
12758;SDS011;20944;47.048;15.390;2023-10-31T07:50:50;1.83;;;1.20;;
12758;SDS011;20944;47.048;15.390;2023-10-31T07:53:21;2.75;;;1.92;;
12758;SDS011;20944;47.048;15.390;2023-10-31T07:55:52;5.85;;;2.00;;
12758;SDS011;20944;47.048;15.390;2023-10-31T07:58:26;2.47;;;1.55;;
12758;SDS011;20944;47.048;15.390;2023-10-31T08:00:58;3.53;;;1.33;;
12758;SDS011;20944;47.048;15.390;2023-10-31T08:03:28;2.45;;;1.48;;
12758;SDS011;20944;47.048;15.390;2023-10-31T08:05:58;1.95;;;1.45;;
12758;SDS011;20944;47.048;15.390;2023-10-31T08:08:28;1.67;;;1.17;;
12758;SDS011;20944;47.048;15.390;2023-10-31T08:10:58;3.95;;;1.52;;
12758;SDS011;20944;47.048;15.390;2023-10-31T08:13:27;2.03;;;1.65;;
12758;SDS011;20944;47.048;15.390;2023-10-31T08:15:56;2.55;;;1.65;;
12758;SDS011;20944;47.048;15.390;2023-10-31T08:18:26;2.97;;;1.17;;
12758;SDS011;20944;47.048;15.390;2023-10-31T08:20:56;2.80;;;1.40;;
12758;SDS011;20944;47.048;15.390;2023-10-31T08:23:25;3.75;;;1.42;;
12758;SDS011;20944;47.048;15.390;2023-10-31T08:25:54;1.27;;;1.10;;
12758;SDS011;20944;47.048;15.390;2023-10-31T08:28:24;1.92;;;1.00;;
12758;SDS011;20944;47.048;15.390;2023-10-31T08:30:52;3.97;;;1.42;;
12758;SDS011;20944;47.048;15.390;2023-10-31T08:33:20;3.05;;;1.50;;
12758;SDS011;20944;47.048;15.390;2023-10-31T08:35:49;2.47;;;1.42;;
12758;SDS011;20944;47.048;15.390;2023-10-31T08:38:18;2.00;;;1.40;;
12758;SDS011;20944;47.048;15.390;2023-10-31T08:40:57;1.52;;;1.40;;
12758;SDS011;20944;47.048;15.390;2023-10-31T08:43:28;1.90;;;1.30;;
12758;SDS011;20944;47.048;15.390;2023-10-31T08:45:57;4.45;;;1.52;;
12758;SDS011;20944;47.048;15.390;2023-10-31T08:48:25;3.67;;;1.10;;
12758;SDS011;20944;47.048;15.390;2023-10-31T08:50:54;2.08;;;1.23;;
12758;SDS011;20944;47.048;15.390;2023-10-31T08:53:22;3.05;;;1.20;;
12758;SDS011;20944;47.048;15.390;2023-10-31T08:55:51;2.25;;;1.30;;
12758;SDS011;20944;47.048;15.390;2023-10-31T08:58:19;3.30;;;1.38;;
12758;SDS011;20944;47.048;15.390;2023-10-31T09:00:49;2.50;;;1.35;;
12758;SDS011;20944;47.048;15.390;2023-10-31T09:03:18;1.60;;;1.30;;
12758;SDS011;20944;47.048;15.390;2023-10-31T09:05:46;3.25;;;1.20;;
12758;SDS011;20944;47.048;15.390;2023-10-31T09:08:14;2.10;;;1.50;;
12758;SDS011;20944;47.048;15.390;2023-10-31T09:10:43;2.50;;;1.63;;
12758;SDS011;20944;47.048;15.390;2023-10-31T09:13:13;5.88;;;1.48;;
12758;SDS011;20944;47.048;15.390;2023-10-31T09:15:42;3.70;;;1.40;;
12758;SDS011;20944;47.048;15.390;2023-10-31T09:18:14;1.40;;;1.30;;
12758;SDS011;20944;47.048;15.390;2023-10-31T09:20:42;2.47;;;1.45;;
12758;SDS011;20944;47.048;15.390;2023-10-31T09:23:10;6.43;;;1.23;;
12758;SDS011;20944;47.048;15.390;2023-10-31T09:25:39;2.80;;;0.90;;
12758;SDS011;20944;47.048;15.390;2023-10-31T09:28:07;1.05;;;0.95;;
12758;SDS011;20944;47.048;15.390;2023-10-31T09:30:36;3.28;;;1.00;;
12758;SDS011;20944;47.048;15.390;2023-10-31T09:33:04;1.85;;;0.68;;
12758;SDS011;20944;47.048;15.390;2023-10-31T09:35:34;0.40;;;0.40;;
12758;SDS011;20944;47.048;15.390;2023-10-31T09:38:02;0.30;;;0.30;;
12758;SDS011;20944;47.048;15.390;2023-10-31T09:40:30;0.47;;;0.40;;
12758;SDS011;20944;47.048;15.390;2023-10-31T09:42:59;1.67;;;0.30;;
12758;SDS011;20944;47.048;15.390;2023-10-31T09:45:27;2.77;;;0.30;;
12758;SDS011;20944;47.048;15.390;2023-10-31T09:47:56;0.30;;;0.20;;
12758;SDS011;20944;47.048;15.390;2023-10-31T09:50:28;0.60;;;0.30;;
12758;SDS011;20944;47.048;15.390;2023-10-31T09:52:59;0.30;;;0.30;;
12758;SDS011;20944;47.048;15.390;2023-10-31T09:55:28;0.10;;;0.10;;
12758;SDS011;20944;47.048;15.390;2023-10-31T09:57:56;0.83;;;0.20;;
12758;SDS011;20944;47.048;15.390;2023-10-31T10:00:25;0.70;;;0.20;;
12758;SDS011;20944;47.048;15.390;2023-10-31T10:02:54;0.10;;;0.10;;
12758;SDS011;20944;47.048;15.390;2023-10-31T10:05:23;0.50;;;0.20;;
12758;SDS011;20944;47.048;15.390;2023-10-31T10:07:55;0.33;;;0.20;;
12758;SDS011;20944;47.048;15.390;2023-10-31T10:10:24;0.20;;;0.10;;
12758;SDS011;20944;47.048;15.390;2023-10-31T10:12:53;0.10;;;0.10;;
12758;SDS011;20944;47.048;15.390;2023-10-31T10:15:21;0.10;;;0.10;;
12758;SDS011;20944;47.048;15.390;2023-10-31T10:17:49;0.07;;;0.07;;
12758;SDS011;20944;47.048;15.390;2023-10-31T10:20:19;0.20;;;0.07;;
12758;SDS011;20944;47.048;15.390;2023-10-31T10:22:47;0.20;;;0.20;;
12758;SDS011;20944;47.048;15.390;2023-10-31T10:25:17;0.20;;;0.20;;
12758;SDS011;20944;47.048;15.390;2023-10-31T10:27:47;0.50;;;0.10;;
12758;SDS011;20944;47.048;15.390;2023-10-31T10:30:15;0.27;;;0.20;;
12758;SDS011;20944;47.048;15.390;2023-10-31T10:32:43;4.77;;;0.17;;
12758;SDS011;20944;47.048;15.390;2023-10-31T10:35:12;0.20;;;0.10;;
12758;SDS011;20944;47.048;15.390;2023-10-31T10:37:41;0.73;;;0.10;;
12758;SDS011;20944;47.048;15.390;2023-10-31T10:40:13;0.03;;;0.03;;
12758;SDS011;20944;47.048;15.390;2023-10-31T10:42:44;0.07;;;0.00;;
12758;SDS011;20944;47.048;15.390;2023-10-31T10:45:15;0.00;;;0.00;;
12758;SDS011;20944;47.048;15.390;2023-10-31T10:47:46;0.00;;;0.00;;
12758;SDS011;20944;47.048;15.390;2023-10-31T10:50:15;0.00;;;0.00;;
12758;SDS011;20944;47.048;15.390;2023-10-31T10:52:48;0.00;;;0.00;;
12758;SDS011;20944;47.048;15.390;2023-10-31T10:55:21;0.00;;;0.00;;
12758;SDS011;20944;47.048;15.390;2023-10-31T10:57:56;0.07;;;0.00;;
12758;SDS011;20944;47.048;15.390;2023-10-31T11:00:28;0.00;;;0.00;;
12758;SDS011;20944;47.048;15.390;2023-10-31T11:02:57;0.03;;;0.00;;
12758;SDS011;20944;47.048;15.390;2023-10-31T11:05:27;0.30;;;0.00;;
12758;SDS011;20944;47.048;15.390;2023-10-31T11:07:56;0.00;;;0.00;;
12758;SDS011;20944;47.048;15.390;2023-10-31T11:10:26;0.00;;;0.00;;
12758;SDS011;20944;47.048;15.390;2023-10-31T11:12:56;0.00;;;0.00;;
12758;SDS011;20944;47.048;15.390;2023-10-31T11:15:25;0.00;;;0.00;;
12758;SDS011;20944;47.048;15.390;2023-10-31T11:17:55;0.00;;;0.00;;
12758;SDS011;20944;47.048;15.390;2023-10-31T11:20:25;0.00;;;0.00;;
12758;SDS011;20944;47.048;15.390;2023-10-31T11:22:55;0.00;;;0.00;;
12758;SDS011;20944;47.048;15.390;2023-10-31T11:25:25;0.00;;;0.00;;
12758;SDS011;20944;47.048;15.390;2023-10-31T11:28:11;0.00;;;0.00;;
12758;SDS011;20944;47.048;15.390;2023-10-31T11:30:41;0.00;;;0.00;;
12758;SDS011;20944;47.048;15.390;2023-10-31T11:33:13;0.00;;;0.00;;
12758;SDS011;20944;47.048;15.390;2023-10-31T11:35:43;0.00;;;0.00;;
12758;SDS011;20944;47.048;15.390;2023-10-31T11:38:12;0.00;;;0.00;;
12758;SDS011;20944;47.048;15.390;2023-10-31T11:40:59;0.00;;;0.00;;
12758;SDS011;20944;47.048;15.390;2023-10-31T11:43:39;0.00;;;0.00;;
12758;SDS011;20944;47.048;15.390;2023-10-31T11:46:19;0.00;;;0.00;;
12758;SDS011;20944;47.048;15.390;2023-10-31T11:48:50;0.00;;;0.00;;
12758;SDS011;20944;47.048;15.390;2023-10-31T11:51:19;0.00;;;0.00;;
12758;SDS011;20944;47.048;15.390;2023-10-31T11:53:48;0.00;;;0.00;;
12758;SDS011;20944;47.048;15.390;2023-10-31T11:56:17;0.00;;;0.00;;
12758;SDS011;20944;47.048;15.390;2023-10-31T11:58:55;0.00;;;0.00;;
12758;SDS011;20944;47.048;15.390;2023-10-31T12:01:25;0.00;;;0.00;;
12758;SDS011;20944;47.048;15.390;2023-10-31T12:03:53;0.00;;;0.00;;
12758;SDS011;20944;47.048;15.390;2023-10-31T12:06:22;4.60;;;0.00;;
12758;SDS011;20944;47.048;15.390;2023-10-31T12:08:50;0.00;;;0.00;;
12758;SDS011;20944;47.048;15.390;2023-10-31T12:11:19;0.00;;;0.00;;
12758;SDS011;20944;47.048;15.390;2023-10-31T12:13:54;0.00;;;0.00;;
12758;SDS011;20944;47.048;15.390;2023-10-31T12:16:27;0.00;;;0.00;;
12758;SDS011;20944;47.048;15.390;2023-10-31T12:18:57;0.23;;;0.00;;
12758;SDS011;20944;47.048;15.390;2023-10-31T12:21:39;0.00;;;0.00;;
12758;SDS011;20944;47.048;15.390;2023-10-31T12:24:10;0.00;;;0.00;;
12758;SDS011;20944;47.048;15.390;2023-10-31T12:26:41;0.00;;;0.00;;
12758;SDS011;20944;47.048;15.390;2023-10-31T12:29:12;0.00;;;0.00;;
12758;SDS011;20944;47.048;15.390;2023-10-31T12:31:42;0.00;;;0.00;;
12758;SDS011;20944;47.048;15.390;2023-10-31T12:34:13;0.00;;;0.00;;
12758;SDS011;20944;47.048;15.390;2023-10-31T12:36:41;0.00;;;0.00;;
12758;SDS011;20944;47.048;15.390;2023-10-31T12:39:11;0.00;;;0.00;;
12758;SDS011;20944;47.048;15.390;2023-10-31T12:41:40;0.37;;;0.00;;
12758;SDS011;20944;47.048;15.390;2023-10-31T12:44:09;0.00;;;0.00;;
12758;SDS011;20944;47.048;15.390;2023-10-31T12:46:40;0.00;;;0.00;;
12758;SDS011;20944;47.048;15.390;2023-10-31T12:49:12;0.20;;;0.00;;
12758;SDS011;20944;47.048;15.390;2023-10-31T12:51:57;0.00;;;0.00;;
12758;SDS011;20944;47.048;15.390;2023-10-31T12:54:27;0.20;;;0.00;;
12758;SDS011;20944;47.048;15.390;2023-10-31T12:56:58;0.20;;;0.20;;
12758;SDS011;20944;47.048;15.390;2023-10-31T12:59:27;0.00;;;0.00;;
12758;SDS011;20944;47.048;15.390;2023-10-31T13:01:57;0.00;;;0.00;;
12758;SDS011;20944;47.048;15.390;2023-10-31T13:04:26;0.83;;;0.00;;
12758;SDS011;20944;47.048;15.390;2023-10-31T13:06:56;0.00;;;0.00;;
12758;SDS011;20944;47.048;15.390;2023-10-31T13:09:29;0.00;;;0.00;;
12758;SDS011;20944;47.048;15.390;2023-10-31T13:11:58;0.93;;;0.00;;
12758;SDS011;20944;47.048;15.390;2023-10-31T13:14:28;0.00;;;0.00;;
12758;SDS011;20944;47.048;15.390;2023-10-31T13:16:58;0.00;;;0.00;;
12758;SDS011;20944;47.048;15.390;2023-10-31T13:19:27;0.10;;;0.00;;
12758;SDS011;20944;47.048;15.390;2023-10-31T13:21:55;0.00;;;0.00;;
12758;SDS011;20944;47.048;15.390;2023-10-31T13:24:23;0.20;;;0.00;;
12758;SDS011;20944;47.048;15.390;2023-10-31T13:26:52;0.00;;;0.00;;
12758;SDS011;20944;47.048;15.390;2023-10-31T13:29:20;0.00;;;0.00;;
12758;SDS011;20944;47.048;15.390;2023-10-31T13:31:52;0.00;;;0.00;;
12758;SDS011;20944;47.048;15.390;2023-10-31T13:34:22;0.00;;;0.00;;
12758;SDS011;20944;47.048;15.390;2023-10-31T13:36:50;0.50;;;0.10;;
12758;SDS011;20944;47.048;15.390;2023-10-31T13:39:21;0.00;;;0.00;;
12758;SDS011;20944;47.048;15.390;2023-10-31T13:41:50;0.37;;;0.10;;
12758;SDS011;20944;47.048;15.390;2023-10-31T13:44:18;0.40;;;0.10;;
12758;SDS011;20944;47.048;15.390;2023-10-31T13:46:47;0.10;;;0.10;;
12758;SDS011;20944;47.048;15.390;2023-10-31T13:49:16;0.30;;;0.00;;
12758;SDS011;20944;47.048;15.390;2023-10-31T13:51:46;0.00;;;0.00;;
12758;SDS011;20944;47.048;15.390;2023-10-31T13:54:16;0.43;;;0.10;;
12758;SDS011;20944;47.048;15.390;2023-10-31T13:56:45;0.83;;;0.57;;
12758;SDS011;20944;47.048;15.390;2023-10-31T13:59:14;0.70;;;0.40;;
12758;SDS011;20944;47.048;15.390;2023-10-31T14:01:44;0.10;;;0.10;;
12758;SDS011;20944;47.048;15.390;2023-10-31T14:04:14;0.10;;;0.03;;
12758;SDS011;20944;47.048;15.390;2023-10-31T14:06:43;0.00;;;0.00;;
12758;SDS011;20944;47.048;15.390;2023-10-31T14:09:14;0.10;;;0.00;;
12758;SDS011;20944;47.048;15.390;2023-10-31T14:11:42;0.03;;;0.03;;
12758;SDS011;20944;47.048;15.390;2023-10-31T14:14:11;2.63;;;0.10;;
12758;SDS011;20944;47.048;15.390;2023-10-31T14:16:40;0.30;;;0.10;;
12758;SDS011;20944;47.048;15.390;2023-10-31T14:19:10;0.83;;;0.10;;
12758;SDS011;20944;47.048;15.390;2023-10-31T14:21:40;0.37;;;0.20;;
12758;SDS011;20944;47.048;15.390;2023-10-31T14:24:08;0.00;;;0.00;;
12758;SDS011;20944;47.048;15.390;2023-10-31T14:26:40;0.10;;;0.10;;
12758;SDS011;20944;47.048;15.390;2023-10-31T14:29:10;0.40;;;0.10;;
12758;SDS011;20944;47.048;15.390;2023-10-31T14:31:39;0.10;;;0.07;;
12758;SDS011;20944;47.048;15.390;2023-10-31T14:34:09;1.50;;;0.00;;
12758;SDS011;20944;47.048;15.390;2023-10-31T14:36:38;0.00;;;0.00;;
12758;SDS011;20944;47.048;15.390;2023-10-31T14:39:08;0.43;;;0.00;;
12758;SDS011;20944;47.048;15.390;2023-10-31T14:41:39;0.27;;;0.00;;
12758;SDS011;20944;47.048;15.390;2023-10-31T14:44:08;0.37;;;0.10;;
12758;SDS011;20944;47.048;15.390;2023-10-31T14:46:36;0.20;;;0.10;;